createdAt,value
2017-11-18T00:01:11.327Z,3.07
2017-11-18T00:03:38.842Z,3.07
2017-11-18T00:06:06.358Z,3.09
2017-11-18T00:08:33.868Z,3.13
2017-11-18T00:11:01.383Z,3.21
2017-11-18T00:13:28.938Z,3.21
2017-11-18T00:15:56.460Z,3.21
2017-11-18T00:18:23.979Z,3.25
2017-11-18T00:20:51.510Z,3.30
2017-11-18T00:23:19.022Z,3.28
2017-11-18T00:25:46.542Z,3.33
2017-11-18T00:28:14.064Z,3.31
2017-11-18T00:30:41.615Z,3.27
2017-11-18T00:33:09.133Z,3.20
2017-11-18T00:35:36.647Z,3.23
2017-11-18T00:38:04.159Z,3.21
2017-11-18T00:40:31.684Z,3.23
2017-11-18T00:42:59.203Z,3.26
2017-11-18T00:45:26.718Z,3.27
2017-11-18T00:47:54.226Z,3.27
2017-11-18T00:50:21.733Z,3.25
2017-11-18T00:52:49.242Z,3.20
2017-11-18T00:55:16.766Z,3.18
2017-11-18T00:57:44.306Z,3.24
2017-11-18T01:00:11.832Z,3.23
2017-11-18T01:02:39.347Z,3.24
2017-11-18T01:05:06.867Z,3.21
2017-11-18T01:07:34.395Z,3.23
2017-11-18T01:10:01.916Z,3.19
2017-11-18T01:12:29.434Z,3.17
2017-11-18T01:14:56.941Z,3.18
2017-11-18T01:17:24.451Z,3.15
2017-11-18T01:19:51.972Z,3.13
2017-11-18T01:22:19.490Z,3.15
2017-11-18T01:24:47.019Z,3.12
2017-11-18T01:27:14.539Z,3.15
2017-11-18T01:29:42.054Z,3.10
2017-11-18T01:32:09.579Z,3.11
2017-11-18T01:34:37.103Z,3.13
2017-11-18T01:37:04.619Z,3.13
2017-11-18T01:39:32.140Z,3.09
2017-11-18T01:41:59.663Z,3.07
2017-11-18T01:44:27.178Z,3.06
2017-11-18T01:46:54.699Z,3.11
2017-11-18T01:49:22.236Z,3.08
2017-11-18T01:51:49.759Z,3.12
2017-11-18T01:54:17.266Z,3.09
2017-11-18T01:56:44.794Z,3.11
2017-11-18T01:59:12.310Z,3.11
2017-11-18T02:01:39.822Z,3.02
2017-11-18T02:04:07.335Z,3.01
2017-11-18T02:06:34.850Z,2.98
2017-11-18T02:09:02.372Z,2.99
2017-11-18T02:11:29.887Z,2.96
2017-11-18T02:13:57.510Z,2.94
2017-11-18T02:16:25.026Z,2.96
2017-11-18T02:18:52.553Z,2.89
2017-11-18T02:21:20.072Z,2.86
2017-11-18T02:23:47.588Z,2.88
2017-11-18T02:26:15.115Z,2.87
2017-11-18T02:28:42.624Z,2.89
2017-11-18T02:31:10.149Z,2.88
2017-11-18T02:33:37.682Z,2.87
2017-11-18T02:36:05.207Z,2.87
2017-11-18T02:38:32.727Z,2.90
2017-11-18T02:41:00.244Z,2.93
2017-11-18T02:43:27.765Z,2.94
2017-11-18T02:45:55.286Z,2.94
2017-11-18T02:48:22.796Z,2.97
2017-11-18T02:50:50.309Z,2.95
2017-11-18T02:53:17.830Z,2.96
2017-11-18T02:55:45.337Z,2.96
2017-11-18T02:58:12.854Z,2.95
2017-11-18T03:00:40.365Z,2.91
2017-11-18T03:03:07.885Z,2.92
2017-11-18T03:05:35.399Z,2.92
2017-11-18T03:08:02.926Z,2.88
2017-11-18T03:10:30.440Z,2.90
2017-11-18T03:12:57.957Z,2.89
2017-11-18T03:15:25.469Z,2.93
2017-11-18T03:17:52.981Z,2.94
2017-11-18T03:20:20.486Z,2.95
2017-11-18T03:22:47.995Z,3.05
2017-11-18T03:25:15.513Z,3.10
2017-11-18T03:27:43.017Z,3.13
2017-11-18T03:30:10.524Z,3.13
2017-11-18T03:32:38.086Z,3.16
2017-11-18T03:35:05.599Z,3.20
2017-11-18T03:37:33.119Z,3.24
2017-11-18T03:40:00.634Z,3.24
2017-11-18T03:42:28.159Z,3.26
2017-11-18T03:44:55.675Z,3.31
2017-11-18T03:47:23.186Z,3.33
2017-11-18T03:49:50.744Z,3.34
2017-11-18T03:52:18.254Z,3.41
2017-11-18T03:54:45.762Z,3.42
2017-11-18T03:57:13.283Z,3.45
2017-11-18T03:59:40.835Z,3.46
2017-11-18T04:02:08.353Z,3.47
2017-11-18T04:04:35.879Z,3.52
2017-11-18T04:07:03.392Z,3.52
2017-11-18T04:09:30.908Z,3.53
2017-11-18T04:11:58.426Z,3.57
2017-11-18T04:14:25.940Z,3.63
2017-11-18T04:16:53.462Z,3.64
2017-11-18T04:19:20.979Z,3.64
2017-11-18T04:21:48.508Z,3.64
2017-11-18T04:24:16.024Z,3.71
2017-11-18T04:26:43.555Z,3.72
2017-11-18T04:29:11.075Z,3.72
2017-11-18T04:31:38.603Z,3.76
2017-11-18T04:34:06.126Z,3.75
2017-11-18T04:36:33.656Z,3.77
2017-11-18T04:39:01.181Z,3.78
2017-11-18T04:41:28.720Z,3.80
2017-11-18T04:43:56.240Z,3.80
2017-11-18T04:46:23.757Z,3.85
2017-11-18T04:48:51.280Z,3.85
2017-11-18T04:51:18.799Z,3.86
2017-11-18T04:53:46.310Z,3.91
2017-11-18T04:56:13.840Z,3.87
2017-11-18T04:58:41.364Z,3.86
2017-11-18T05:01:08.887Z,3.88
2017-11-18T05:03:36.407Z,3.91
2017-11-18T05:06:03.923Z,3.89
2017-11-18T05:08:31.440Z,3.93
2017-11-18T05:10:58.952Z,3.92
2017-11-18T05:13:26.464Z,3.93
2017-11-18T05:15:53.977Z,3.90
2017-11-18T05:18:21.490Z,3.96
2017-11-18T05:20:49.023Z,3.97
2017-11-18T05:23:16.564Z,4.00
2017-11-18T05:25:44.083Z,4.02
2017-11-18T05:28:11.601Z,4.01
2017-11-18T05:30:39.119Z,4.00
2017-11-18T05:33:06.626Z,3.98
2017-11-18T05:35:34.154Z,4.01
2017-11-18T05:38:01.671Z,4.04
2017-11-18T05:40:29.187Z,4.07
2017-11-18T05:42:56.699Z,4.07
2017-11-18T05:45:24.216Z,4.08
2017-11-18T05:47:51.735Z,4.05
2017-11-18T05:50:19.252Z,4.09
2017-11-18T05:52:46.767Z,4.17
2017-11-18T05:55:14.288Z,4.17
2017-11-18T05:57:41.812Z,4.17
2017-11-18T06:00:09.330Z,4.18
2017-11-18T06:02:36.848Z,4.16
2017-11-18T06:05:04.386Z,4.18
2017-11-18T06:07:31.908Z,4.18
2017-11-18T06:09:59.428Z,4.19
2017-11-18T06:12:26.941Z,4.17
2017-11-18T06:14:54.451Z,4.07
2017-11-18T06:17:21.963Z,4.03
2017-11-18T06:19:49.483Z,4.00
2017-11-18T06:22:17.003Z,3.99
2017-11-18T06:24:44.519Z,3.99
2017-11-18T06:27:12.032Z,4.05
2017-11-18T06:29:39.549Z,4.02
2017-11-18T06:32:07.069Z,4.03
2017-11-18T06:34:34.578Z,4.00
2017-11-18T06:37:02.116Z,4.01
2017-11-18T06:39:29.623Z,3.96
2017-11-18T06:41:57.254Z,3.93
2017-11-18T06:44:24.780Z,3.95
2017-11-18T06:46:52.294Z,3.87
2017-11-18T06:49:19.802Z,3.89
2017-11-18T06:51:47.313Z,3.83
2017-11-18T06:54:14.823Z,3.82
2017-11-18T06:56:42.337Z,3.84
2017-11-18T06:59:09.866Z,3.81
2017-11-18T07:01:37.392Z,3.80
2017-11-18T07:04:04.918Z,3.79
2017-11-18T07:06:32.444Z,3.77
2017-11-18T07:08:59.961Z,3.79
2017-11-18T07:11:27.469Z,3.77
2017-11-18T07:13:55.030Z,3.78
2017-11-18T07:16:22.551Z,3.81
2017-11-18T07:18:50.077Z,3.89
2017-11-18T07:21:17.600Z,4.01
2017-11-18T07:23:45.115Z,4.18
2017-11-18T07:26:12.631Z,4.25
2017-11-18T07:28:40.142Z,4.37
2017-11-18T07:31:07.972Z,4.48
2017-11-18T07:33:35.493Z,4.54
2017-11-18T07:36:03.009Z,4.62
2017-11-18T07:38:30.535Z,4.64
2017-11-18T07:40:58.047Z,4.69
2017-11-18T07:43:25.580Z,4.75
2017-11-18T07:45:53.097Z,4.79
2017-11-18T07:48:20.627Z,4.78
2017-11-18T07:50:48.134Z,4.89
2017-11-18T07:53:15.644Z,4.94
2017-11-18T07:55:43.159Z,4.94
2017-11-18T07:58:10.676Z,4.92
2017-11-18T08:00:38.240Z,5.00
2017-11-18T08:03:05.763Z,5.01
2017-11-18T08:05:33.269Z,5.06
2017-11-18T08:08:00.829Z,5.03
2017-11-18T08:10:28.347Z,5.06
2017-11-18T08:12:55.863Z,5.06
2017-11-18T08:15:23.375Z,5.08
2017-11-18T08:17:50.886Z,5.11
2017-11-18T08:20:18.405Z,5.13
2017-11-18T08:22:45.923Z,5.19
2017-11-18T08:25:13.447Z,5.23
2017-11-18T08:27:40.960Z,5.30
2017-11-18T08:30:08.492Z,5.28
2017-11-18T08:32:36.010Z,5.37
2017-11-18T08:35:03.524Z,5.47
2017-11-18T08:37:31.039Z,5.47
2017-11-18T08:39:58.554Z,5.51
2017-11-18T08:42:26.079Z,5.62
2017-11-18T08:44:53.593Z,5.54
2017-11-18T08:47:21.127Z,5.62
2017-11-18T08:49:48.647Z,5.67
2017-11-18T08:52:16.159Z,5.69
2017-11-18T08:54:43.685Z,5.67
2017-11-18T08:57:11.199Z,5.79
2017-11-18T08:59:38.724Z,5.79
2017-11-18T09:02:06.243Z,5.80
2017-11-18T09:04:33.755Z,5.80
2017-11-18T09:07:01.270Z,5.84
2017-11-18T09:09:28.779Z,5.83
2017-11-18T09:11:56.301Z,5.87
2017-11-18T09:14:23.816Z,5.89
2017-11-18T09:16:51.487Z,5.84
2017-11-18T09:19:18.999Z,5.84
2017-11-18T09:21:46.512Z,5.99
2017-11-18T09:24:14.022Z,6.00
2017-11-18T09:26:41.539Z,6.01
2017-11-18T09:29:09.055Z,6.03
2017-11-18T09:31:36.645Z,6.01
2017-11-18T09:34:04.208Z,6.04
2017-11-18T09:36:31.724Z,6.04
2017-11-18T09:38:59.252Z,6.14
2017-11-18T09:41:26.777Z,6.18
2017-11-18T09:43:54.291Z,6.11
2017-11-18T09:46:21.813Z,6.06
2017-11-18T09:48:49.328Z,6.13
2017-11-18T09:51:16.847Z,6.16
2017-11-18T09:53:44.372Z,6.20
2017-11-18T09:56:11.926Z,6.20
2017-11-18T09:58:39.488Z,6.23
2017-11-18T10:01:06.992Z,6.26
2017-11-18T10:03:34.513Z,6.25
2017-11-18T10:06:02.026Z,6.26
2017-11-18T10:08:29.544Z,6.26
2017-11-18T10:10:57.063Z,6.33
2017-11-18T10:13:24.575Z,6.35
2017-11-18T10:15:52.095Z,6.38
2017-11-18T10:18:19.606Z,6.39
2017-11-18T10:20:47.127Z,6.38
2017-11-18T10:23:14.649Z,6.39
2017-11-18T10:25:42.172Z,6.39
2017-11-18T10:28:09.687Z,6.40
2017-11-18T10:30:37.208Z,6.38
2017-11-18T10:33:04.723Z,6.35
2017-11-18T10:35:32.248Z,6.35
2017-11-18T10:37:59.766Z,6.39
2017-11-18T10:40:27.290Z,6.43
2017-11-18T10:42:54.806Z,6.48
2017-11-18T10:45:22.330Z,6.42
2017-11-18T10:47:49.863Z,6.43
2017-11-18T10:50:17.436Z,6.32
2017-11-18T10:52:44.965Z,6.27
2017-11-18T10:55:13.092Z,6.30
2017-11-18T10:57:40.626Z,6.33
2017-11-18T11:00:08.952Z,6.27
2017-11-18T11:02:36.473Z,6.29
2017-11-18T11:05:03.984Z,6.34
2017-11-18T11:07:31.955Z,6.35
2017-11-18T11:09:59.475Z,6.28
2017-11-18T11:12:26.991Z,6.32
2017-11-18T11:14:54.503Z,6.35
2017-11-18T11:17:22.022Z,6.25
2017-11-18T11:19:50.310Z,6.27
2017-11-18T11:22:18.071Z,6.26
2017-11-18T11:24:45.840Z,6.35
2017-11-18T11:27:13.356Z,6.36
2017-11-18T11:29:40.884Z,6.36
2017-11-18T11:32:08.418Z,6.44
2017-11-18T11:34:35.942Z,6.42
2017-11-18T11:37:03.473Z,6.54
2017-11-18T11:39:30.994Z,6.46
2017-11-18T11:41:58.509Z,6.53
2017-11-18T11:44:26.035Z,6.71
2017-11-18T11:46:53.621Z,6.64
2017-11-18T11:49:21.143Z,6.69
2017-11-18T11:51:48.659Z,6.91
2017-11-18T11:54:16.325Z,6.82
2017-11-18T11:56:43.846Z,6.84
2017-11-18T11:59:11.377Z,7.03
2017-11-18T12:01:38.919Z,7.02
2017-11-18T12:04:06.427Z,7.13
2017-11-18T12:06:33.935Z,7.24
2017-11-18T12:09:01.449Z,7.32
2017-11-18T12:11:28.965Z,7.31
2017-11-18T12:13:56.487Z,7.27
2017-11-18T12:16:24.007Z,7.16
2017-11-18T12:18:51.529Z,7.16
2017-11-18T12:21:19.107Z,7.42
2017-11-18T12:23:46.622Z,7.45
2017-11-18T12:26:14.148Z,7.49
2017-11-18T12:28:41.658Z,7.47
2017-11-18T12:31:09.176Z,7.55
2017-11-18T12:33:36.700Z,7.62
2017-11-18T12:36:04.221Z,7.47
2017-11-18T12:38:31.747Z,7.59
2017-11-18T12:40:59.282Z,7.62
2017-11-18T12:43:26.790Z,7.70
2017-11-18T12:45:54.322Z,7.62
2017-11-18T12:48:22.015Z,7.55
2017-11-18T12:50:49.524Z,7.43
2017-11-18T12:53:17.030Z,7.36
2017-11-18T12:55:44.548Z,7.35
2017-11-18T12:58:12.060Z,7.38
2017-11-18T13:00:39.583Z,7.39
2017-11-18T13:03:07.103Z,7.45
2017-11-18T13:05:34.618Z,7.22
2017-11-18T13:08:02.143Z,7.14
2017-11-18T13:10:29.667Z,7.16
2017-11-18T13:12:57.178Z,7.26
2017-11-18T13:15:24.706Z,7.25
2017-11-18T13:17:52.225Z,7.28
2017-11-18T13:20:19.738Z,7.28
2017-11-18T13:22:47.270Z,7.26
2017-11-18T13:25:14.787Z,7.29
2017-11-18T13:27:42.308Z,7.27
2017-11-18T13:30:09.919Z,7.27
2017-11-18T13:32:37.436Z,7.35
2017-11-18T13:35:05.155Z,7.25
2017-11-18T13:37:32.675Z,7.24
2017-11-18T13:40:00.190Z,7.28
2017-11-18T13:42:27.720Z,7.16
2017-11-18T13:44:55.637Z,7.23
2017-11-18T13:47:23.182Z,7.20
2017-11-18T13:49:50.984Z,7.22
2017-11-18T13:52:18.545Z,7.22
2017-11-18T13:54:46.091Z,7.10
2017-11-18T13:57:13.948Z,7.05
2017-11-18T13:59:41.918Z,7.06
2017-11-18T14:02:09.476Z,7.04
2017-11-18T14:04:36.988Z,7.04
2017-11-18T14:07:04.508Z,6.96
2017-11-18T14:09:32.029Z,6.97
2017-11-18T14:11:59.549Z,6.92
2017-11-18T14:14:27.091Z,6.93
2017-11-18T14:16:54.843Z,6.90
2017-11-18T14:19:22.364Z,6.88
2017-11-18T14:21:49.884Z,6.90
2017-11-18T14:24:17.926Z,6.84
2017-11-18T14:26:45.471Z,6.88
2017-11-18T14:29:12.979Z,6.87
2017-11-18T14:31:40.506Z,6.79
2017-11-18T14:34:08.027Z,6.83
2017-11-18T14:36:35.554Z,6.75
2017-11-18T14:39:03.082Z,6.78
2017-11-18T14:41:30.613Z,6.74
2017-11-18T14:43:58.132Z,6.73
2017-11-18T14:46:25.648Z,6.72
2017-11-18T14:48:53.159Z,6.71
2017-11-18T14:51:20.677Z,6.68
2017-11-18T14:53:48.190Z,6.66
2017-11-18T14:56:15.706Z,6.64
2017-11-18T14:58:43.217Z,6.61
2017-11-18T15:01:10.747Z,6.56
2017-11-18T15:03:38.261Z,6.55
2017-11-18T15:06:05.786Z,6.54
2017-11-18T15:08:33.290Z,6.46
2017-11-18T15:11:00.794Z,6.42
2017-11-18T15:13:28.314Z,6.54
2017-11-18T15:16:14.650Z,6.28
2017-11-18T15:18:59.966Z,6.10
2017-11-18T15:21:35.879Z,6.13
2017-11-18T15:24:17.973Z,5.99
2017-11-18T15:26:51.106Z,5.95
2017-11-18T15:29:24.202Z,5.92
2017-11-18T15:35:07.916Z,5.90
2017-11-18T15:37:41.186Z,5.92
2017-11-18T15:40:08.706Z,5.80
2017-11-18T15:42:36.228Z,5.80
2017-11-18T15:45:03.791Z,5.74
2017-11-18T15:47:46.204Z,5.72
2017-11-18T15:50:19.456Z,5.71
2017-11-18T15:56:17.633Z,5.68
2017-11-18T15:58:45.143Z,5.64
2017-11-18T16:01:18.216Z,5.63
2017-11-18T16:03:49.238Z,5.62
2017-11-18T16:06:20.242Z,5.58
2017-11-18T16:08:47.759Z,5.62
2017-11-18T16:11:15.272Z,5.56
2017-11-18T16:13:42.794Z,5.49
2017-11-18T16:16:10.502Z,5.38
2017-11-18T16:18:38.088Z,5.44
2017-11-18T16:21:05.611Z,5.32
2017-11-18T16:23:33.162Z,5.30
2017-11-18T16:26:00.754Z,5.28
2017-11-18T16:28:28.268Z,5.38
2017-11-18T16:30:55.785Z,5.35
2017-11-18T16:33:23.303Z,5.30
2017-11-18T16:35:51.704Z,5.31
2017-11-18T16:38:19.223Z,5.33
2017-11-18T16:40:46.745Z,5.34
2017-11-18T16:43:14.275Z,5.36
2017-11-18T16:45:41.863Z,5.37
2017-11-18T16:48:09.373Z,5.36
2017-11-18T16:50:36.893Z,5.37
2017-11-18T16:53:04.416Z,5.38
2017-11-18T16:55:31.931Z,5.34
2017-11-18T16:57:59.464Z,5.30
2017-11-18T17:00:26.983Z,5.31
2017-11-18T17:02:54.505Z,5.35
2017-11-18T17:05:22.023Z,5.31
2017-11-18T17:07:49.531Z,5.18
2017-11-18T17:10:17.040Z,5.14
2017-11-18T17:12:44.556Z,5.18
2017-11-18T17:15:12.076Z,5.12
2017-11-18T17:17:39.600Z,5.01
2017-11-18T17:20:07.127Z,5.10
2017-11-18T17:22:34.652Z,5.09
2017-11-18T17:25:02.176Z,5.06
2017-11-18T17:27:29.691Z,5.03
2017-11-18T17:29:57.226Z,5.13
2017-11-18T17:32:24.759Z,5.10
2017-11-18T17:34:52.278Z,5.14
2017-11-18T17:37:19.793Z,5.16
2017-11-18T17:39:47.316Z,5.22
2017-11-18T17:42:14.834Z,5.12
2017-11-18T17:44:42.346Z,5.15
2017-11-18T17:47:09.855Z,5.12
2017-11-18T17:49:37.367Z,5.09
2017-11-18T17:52:05.029Z,5.08
2017-11-18T17:54:32.674Z,5.06
2017-11-18T17:57:00.188Z,5.10
2017-11-18T17:59:27.708Z,5.05
2017-11-18T18:01:55.266Z,5.07
2017-11-18T18:04:22.831Z,5.05
2017-11-18T18:06:50.425Z,5.04
2017-11-18T18:09:17.975Z,5.05
2017-11-18T18:11:45.495Z,5.09
2017-11-18T18:14:13.011Z,5.08
2017-11-18T18:16:40.583Z,5.14
2017-11-18T18:19:08.430Z,5.11
2017-11-18T18:21:36.046Z,5.12
2017-11-18T18:24:03.600Z,5.14
2017-11-18T18:26:31.128Z,5.11
2017-11-18T18:28:59.080Z,5.07
2017-11-18T18:31:26.733Z,5.08
2017-11-18T18:33:54.403Z,5.07
2017-11-18T18:36:22.067Z,5.04
2017-11-18T18:38:49.639Z,5.09
2017-11-18T18:41:17.150Z,5.05
2017-11-18T18:43:44.677Z,4.98
2017-11-18T18:46:12.406Z,4.97
2017-11-18T18:48:40.007Z,4.90
2017-11-18T18:51:07.528Z,4.84
2017-11-18T18:53:35.041Z,4.81
2017-11-18T18:56:02.567Z,4.79
2017-11-18T18:58:30.311Z,4.75
2017-11-18T19:00:58.275Z,4.75
2017-11-18T19:03:25.864Z,4.64
2017-11-18T19:05:53.398Z,4.64
2017-11-18T19:08:21.274Z,4.65
2017-11-18T19:10:49.140Z,4.58
2017-11-18T19:13:16.715Z,4.57
2017-11-18T19:15:44.222Z,4.59
2017-11-18T19:18:11.811Z,4.56
2017-11-18T19:20:39.331Z,4.56
2017-11-18T19:23:07.086Z,4.62
2017-11-18T19:25:34.621Z,4.56
2017-11-18T19:28:02.384Z,4.59
2017-11-18T19:30:29.906Z,4.57
2017-11-18T19:32:57.422Z,4.63
2017-11-18T19:35:24.938Z,4.64
2017-11-18T19:37:52.661Z,4.58
2017-11-18T19:40:20.579Z,4.64
2017-11-18T19:42:48.094Z,4.57
2017-11-18T19:45:15.689Z,4.54
2017-11-18T19:47:43.235Z,4.57
2017-11-18T19:50:11.122Z,4.57
2017-11-18T19:52:38.685Z,4.60
2017-11-18T19:55:06.202Z,4.59
2017-11-18T19:57:33.723Z,4.61
2017-11-18T20:00:01.250Z,4.62
2017-11-18T20:02:28.767Z,4.60
2017-11-18T20:04:56.282Z,4.62
2017-11-18T20:07:23.786Z,4.68
2017-11-18T20:09:51.303Z,4.68
2017-11-18T20:12:18.818Z,4.66
2017-11-18T20:14:46.340Z,4.66
2017-11-18T20:17:13.855Z,4.61
2017-11-18T20:19:41.370Z,4.57
2017-11-18T20:22:08.886Z,4.55
2017-11-18T20:24:36.415Z,4.51
2017-11-18T20:27:03.930Z,4.44
2017-11-18T20:29:31.458Z,4.43
2017-11-18T20:31:58.977Z,4.42
2017-11-18T20:34:26.503Z,4.43
2017-11-18T20:36:54.024Z,4.38
2017-11-18T20:39:21.558Z,4.37
2017-11-18T20:41:49.079Z,4.33
2017-11-18T20:44:16.598Z,4.33
2017-11-18T20:46:44.116Z,4.31
2017-11-18T20:49:11.635Z,4.26
2017-11-18T20:51:39.150Z,4.26
2017-11-18T20:54:06.667Z,4.27
2017-11-18T20:56:34.192Z,4.30
2017-11-18T20:59:01.706Z,4.36
2017-11-18T21:01:29.214Z,4.41
2017-11-18T21:03:56.724Z,4.42
2017-11-18T21:06:24.238Z,4.48
2017-11-18T21:08:51.751Z,4.49
2017-11-18T21:11:19.267Z,4.50
2017-11-18T21:13:46.790Z,4.52
2017-11-18T21:16:14.308Z,4.58
2017-11-18T21:18:41.820Z,4.60
2017-11-18T21:21:09.340Z,4.64
2017-11-18T21:23:36.864Z,4.65
2017-11-18T21:26:04.378Z,4.63
2017-11-18T21:28:31.906Z,4.65
2017-11-18T21:30:59.421Z,4.65
2017-11-18T21:33:26.935Z,4.68
2017-11-18T21:35:54.448Z,4.65
2017-11-18T21:38:22.017Z,4.68
2017-11-18T21:40:49.531Z,4.65
2017-11-18T21:43:17.087Z,4.65
2017-11-18T21:45:44.607Z,4.70
2017-11-18T21:48:12.118Z,4.67
2017-11-18T21:50:39.635Z,4.67
2017-11-18T21:53:07.173Z,4.65
2017-11-18T21:55:34.777Z,4.70
2017-11-18T21:58:02.298Z,4.72
2017-11-18T22:00:29.833Z,4.67
2017-11-18T22:02:57.413Z,4.63
2017-11-18T22:05:24.981Z,4.64
2017-11-18T22:07:52.499Z,4.63
2017-11-18T22:10:20.015Z,4.60
2017-11-18T22:12:47.713Z,4.59
2017-11-18T22:15:15.241Z,4.51
2017-11-18T22:17:42.764Z,4.56
2017-11-18T22:20:10.288Z,4.58
2017-11-18T22:22:37.813Z,4.57
2017-11-18T22:25:05.333Z,4.53
2017-11-18T22:27:32.893Z,4.55
2017-11-18T22:30:00.402Z,4.55
2017-11-18T22:32:28.004Z,4.50
2017-11-18T22:34:55.519Z,4.51
2017-11-18T22:37:23.048Z,4.54
2017-11-18T22:39:50.605Z,4.57
2017-11-18T22:42:18.136Z,4.57
2017-11-18T22:44:45.784Z,4.53
2017-11-18T22:47:13.329Z,4.52
2017-11-18T22:49:40.859Z,4.55
2017-11-18T22:52:08.384Z,4.61
2017-11-18T22:54:35.944Z,4.54
2017-11-18T22:57:03.486Z,4.60
2017-11-18T22:59:31.056Z,4.59
2017-11-18T23:01:58.572Z,4.62
2017-11-18T23:04:26.086Z,4.66
2017-11-18T23:06:53.602Z,4.66
2017-11-18T23:09:21.135Z,4.69
2017-11-18T23:11:48.652Z,4.70
2017-11-18T23:14:16.179Z,4.70
2017-11-18T23:16:43.697Z,4.67
2017-11-18T23:19:11.223Z,4.69
2017-11-18T23:21:38.755Z,4.72
2017-11-18T23:24:06.276Z,4.73
2017-11-18T23:26:33.808Z,4.73
2017-11-18T23:29:01.330Z,4.78
2017-11-18T23:31:28.861Z,4.77
2017-11-18T23:33:56.370Z,4.70
2017-11-18T23:36:23.896Z,4.75
2017-11-18T23:38:51.402Z,4.79
2017-11-18T23:41:18.930Z,4.80
2017-11-18T23:43:46.451Z,4.73
2017-11-18T23:46:13.976Z,4.74
2017-11-18T23:48:41.499Z,4.72
2017-11-18T23:51:09.033Z,4.75
2017-11-18T23:53:36.550Z,4.73
2017-11-18T23:56:04.069Z,4.77
2017-11-18T23:58:31.578Z,4.79
